createdAt,value
2022-08-17T00:01:30.062Z,21.28
2022-08-17T00:04:09.328Z,21.20
2022-08-17T00:06:38.333Z,21.13
2022-08-17T00:09:05.654Z,21.08
2022-08-17T00:11:36.497Z,21.04
2022-08-17T00:14:21.409Z,20.94
2022-08-17T00:16:57.459Z,20.88
2022-08-17T00:19:25.826Z,20.78
2022-08-17T00:22:35.053Z,20.72
2022-08-17T00:24:42.913Z,20.66
2022-08-17T00:27:09.423Z,20.56
2022-08-17T00:29:36.394Z,20.58
2022-08-17T00:33:16.083Z,20.54
2022-08-17T00:34:49.967Z,20.51
2022-08-17T00:37:16.903Z,20.50
2022-08-17T00:39:43.864Z,20.48
2022-08-17T00:42:18.765Z,20.47
2022-08-17T00:44:45.739Z,20.39
2022-08-17T00:47:13.269Z,20.39
2022-08-17T00:49:39.852Z,20.39
2022-08-17T00:52:15.383Z,20.38
2022-08-17T00:54:44.684Z,20.36
2022-08-17T00:57:20.124Z,20.32
2022-08-17T01:00:02.575Z,20.28
2022-08-17T01:02:34.370Z,20.23
2022-08-17T01:05:10.425Z,20.24
2022-08-17T01:07:37.925Z,20.27
2022-08-17T01:10:07.217Z,20.29
2022-08-17T01:12:35.553Z,20.30
2022-08-17T01:15:02.090Z,20.27
2022-08-17T01:17:28.633Z,20.28
2022-08-17T01:19:55.714Z,20.26
2022-08-17T01:22:24.194Z,20.17
2022-08-17T01:24:56.429Z,20.17
2022-08-17T01:27:24.433Z,20.06
2022-08-17T01:29:57.870Z,20.09
2022-08-17T01:32:25.842Z,19.99
2022-08-17T01:34:53.167Z,20.00
2022-08-17T01:37:27.674Z,19.98
2022-08-17T01:40:00.622Z,20.00
2022-08-17T01:42:34.499Z,19.97
2022-08-17T01:45:09.874Z,19.96
2022-08-17T01:47:37.358Z,19.94
2022-08-17T01:50:13.681Z,19.89
2022-08-17T01:52:41.009Z,19.86
2022-08-17T01:55:08.988Z,19.83
2022-08-17T01:57:36.124Z,19.79
2022-08-17T02:00:06.799Z,19.75
2022-08-17T02:02:38.063Z,19.75
2022-08-17T02:05:05.990Z,19.75
2022-08-17T02:07:32.626Z,19.74
2022-08-17T02:10:20.232Z,19.73
2022-08-17T02:12:47.008Z,19.72
2022-08-17T02:15:15.155Z,19.72
2022-08-17T02:17:43.155Z,19.71
2022-08-17T02:20:10.723Z,19.69
2022-08-17T02:22:41.111Z,19.73
2022-08-17T02:25:11.159Z,19.62
2022-08-17T02:27:39.278Z,19.71
2022-08-17T02:31:01.127Z,19.70
2022-08-17T02:32:55.547Z,19.62
2022-08-17T02:35:22.694Z,19.69
2022-08-17T02:37:55.418Z,19.70
2022-08-17T02:40:36.354Z,19.68
2022-08-17T02:43:04.200Z,19.65
2022-08-17T02:45:30.725Z,19.62
2022-08-17T02:47:57.239Z,19.63
2022-08-17T02:50:24.992Z,19.64
2022-08-17T02:53:01.828Z,19.60
2022-08-17T02:55:35.776Z,19.57
2022-08-17T02:58:03.677Z,19.50
2022-08-17T03:00:44.350Z,19.56
2022-08-17T03:03:13.454Z,19.55
2022-08-17T03:05:40.501Z,19.55
2022-08-17T03:08:11.673Z,19.52
2022-08-17T03:10:40.925Z,19.49
2022-08-17T03:13:07.557Z,19.42
2022-08-17T03:15:34.761Z,19.46
2022-08-17T03:18:02.345Z,19.42
2022-08-17T03:20:31.186Z,19.40
2022-08-17T03:23:01.728Z,19.33
2022-08-17T03:25:44.000Z,19.26
2022-08-17T03:28:11.942Z,19.14
2022-08-17T03:30:40.027Z,19.15
2022-08-17T03:33:09.926Z,19.09
2022-08-17T03:35:37.933Z,18.96
2022-08-17T03:38:04.842Z,19.05
2022-08-17T03:40:34.639Z,19.07
2022-08-17T03:43:19.823Z,19.09
2022-08-17T03:46:05.239Z,19.09
2022-08-17T03:48:51.052Z,19.07
2022-08-17T03:51:39.793Z,19.03
2022-08-17T03:54:26.107Z,18.98
2022-08-17T03:57:03.095Z,18.91
2022-08-17T03:59:31.856Z,18.87
2022-08-17T04:02:09.767Z,18.84
2022-08-17T04:04:37.259Z,18.84
2022-08-17T04:07:04.485Z,18.83
2022-08-17T04:09:31.116Z,18.82
2022-08-17T04:11:57.659Z,18.79
2022-08-17T04:14:31.126Z,18.78
2022-08-17T04:16:57.615Z,18.79
2022-08-17T04:19:24.206Z,18.81
2022-08-17T04:21:52.755Z,18.84
2022-08-17T04:24:19.288Z,18.87
2022-08-17T04:26:53.620Z,18.88
2022-08-17T04:29:21.456Z,18.88
2022-08-17T04:31:51.524Z,18.80
2022-08-17T04:34:19.583Z,18.82
2022-08-17T04:36:50.179Z,18.78
2022-08-17T04:39:16.895Z,18.79
2022-08-17T04:42:01.819Z,18.83
2022-08-17T04:44:37.362Z,18.87
2022-08-17T04:47:04.608Z,18.89
2022-08-17T04:49:33.538Z,18.73
2022-08-17T04:52:04.334Z,18.94
2022-08-17T04:54:31.210Z,18.95
2022-08-17T04:56:57.704Z,18.95
2022-08-17T04:59:24.488Z,19.00
2022-08-17T05:01:51.886Z,19.11
2022-08-17T05:04:34.165Z,19.21
2022-08-17T05:07:02.083Z,19.41
2022-08-17T05:09:29.075Z,19.80
2022-08-17T05:11:56.180Z,20.33
2022-08-17T05:14:33.113Z,20.83
2022-08-17T05:17:00.409Z,21.37
2022-08-17T05:19:28.599Z,21.98
2022-08-17T05:21:55.108Z,22.59
2022-08-17T05:24:38.964Z,23.11
2022-08-17T05:27:08.135Z,23.70
2022-08-17T05:29:35.235Z,24.06
2022-08-17T05:32:38.224Z,24.19
2022-08-17T05:35:00.409Z,24.58
2022-08-17T05:37:27.536Z,25.22
2022-08-17T05:39:54.512Z,25.54
2022-08-17T05:42:26.027Z,25.80
2022-08-17T05:44:52.822Z,26.26
2022-08-17T05:47:20.595Z,26.74
2022-08-17T05:49:48.923Z,27.11
2022-08-17T05:52:37.732Z,27.47
2022-08-17T05:55:07.222Z,27.78
2022-08-17T05:57:53.834Z,28.13
2022-08-17T06:00:48.068Z,28.53
2022-08-17T06:03:33.501Z,28.79
2022-08-17T06:06:12.532Z,28.89
2022-08-17T06:08:42.014Z,29.03
2022-08-17T06:11:27.087Z,29.09
2022-08-17T06:14:18.238Z,29.29
2022-08-17T06:16:49.358Z,29.51
2022-08-17T06:19:23.182Z,29.73
2022-08-17T06:21:52.745Z,29.73
2022-08-17T06:24:22.266Z,29.94
2022-08-17T06:26:50.034Z,29.90
2022-08-17T06:29:35.374Z,29.86
2022-08-17T06:32:03.401Z,29.76
2022-08-17T06:34:29.999Z,30.12
2022-08-17T06:37:05.547Z,30.47
2022-08-17T06:39:59.375Z,30.65
2022-08-17T06:43:06.605Z,30.69
2022-08-17T06:45:50.423Z,30.91
2022-08-17T06:48:24.813Z,30.97
2022-08-17T06:51:16.983Z,31.00
2022-08-17T06:53:51.707Z,30.91
2022-08-17T06:56:53.961Z,30.86
2022-08-17T06:59:25.420Z,31.10
2022-08-17T07:01:53.142Z,30.98
2022-08-17T07:04:26.132Z,31.03
2022-08-17T07:06:58.859Z,31.18
2022-08-17T07:09:33.941Z,31.12
2022-08-17T07:12:18.202Z,31.24
2022-08-17T07:14:56.865Z,31.17
2022-08-17T07:17:47.272Z,31.25
2022-08-17T07:20:15.367Z,31.40
2022-08-17T07:23:09.690Z,31.46
2022-08-17T07:25:38.335Z,31.61
2022-08-17T07:28:07.707Z,31.89
2022-08-17T07:30:49.238Z,31.58
2022-08-17T07:33:25.716Z,31.21
2022-08-17T07:35:55.754Z,30.70
2022-08-17T07:38:28.462Z,30.42
2022-08-17T07:40:57.548Z,30.35
2022-08-17T07:43:26.126Z,30.48
2022-08-17T07:46:29.482Z,30.62
2022-08-17T07:49:03.123Z,30.88
2022-08-17T07:51:36.448Z,31.29
2022-08-17T07:54:22.597Z,31.47
2022-08-17T07:56:54.915Z,31.77
2022-08-17T07:59:31.118Z,31.43
2022-08-17T08:02:06.322Z,31.62
2022-08-17T08:05:00.646Z,31.63
2022-08-17T08:07:58.166Z,31.59
2022-08-17T08:10:35.512Z,31.85
2022-08-17T08:13:16.774Z,32.29
2022-08-17T08:15:54.266Z,32.64
2022-08-17T08:18:54.292Z,32.70
2022-08-17T08:21:41.695Z,33.03
2022-08-17T08:24:30.828Z,33.37
2022-08-17T08:27:00.734Z,33.32
2022-08-17T08:29:39.664Z,33.57
2022-08-17T08:32:21.117Z,33.90
2022-08-17T08:35:08.173Z,33.97
2022-08-17T08:38:02.628Z,34.15
2022-08-17T08:40:35.144Z,34.46
2022-08-17T08:43:10.658Z,34.73
2022-08-17T08:46:12.190Z,35.00
2022-08-17T08:49:51.896Z,34.89
2022-08-17T08:52:27.918Z,35.08
2022-08-17T08:55:04.341Z,34.80
2022-08-17T08:57:43.580Z,34.76
2022-08-17T09:00:17.955Z,34.95
2022-08-17T09:03:06.202Z,35.26
2022-08-17T09:05:57.032Z,35.35
2022-08-17T09:08:35.514Z,35.67
2022-08-17T09:11:08.282Z,35.95
2022-08-17T09:14:05.030Z,35.88
2022-08-17T09:16:42.665Z,36.14
2022-08-17T09:19:11.248Z,36.29
2022-08-17T09:21:49.678Z,36.43
2022-08-17T09:24:47.311Z,36.28
2022-08-17T09:27:23.633Z,36.06
2022-08-17T09:29:57.851Z,36.00
2022-08-17T09:32:44.632Z,35.85
2022-08-17T09:35:25.148Z,35.75
2022-08-17T09:38:17.067Z,36.03
2022-08-17T09:40:47.808Z,36.02
2022-08-17T09:43:32.169Z,35.86
2022-08-17T09:46:03.754Z,35.64
2022-08-17T09:48:37.773Z,35.65
2022-08-17T09:51:15.243Z,35.75
2022-08-17T09:53:44.577Z,35.99
2022-08-17T09:56:24.165Z,36.18
2022-08-17T09:59:05.642Z,36.54
2022-08-17T10:02:19.955Z,36.59
2022-08-17T10:05:25.869Z,36.75
2022-08-17T10:08:27.551Z,36.79
2022-08-17T10:11:19.694Z,36.81
2022-08-17T10:13:56.313Z,36.52
2022-08-17T10:16:40.776Z,36.44
2022-08-17T10:19:09.991Z,36.57
2022-08-17T10:22:01.074Z,36.73
2022-08-17T10:25:23.538Z,36.56
2022-08-17T10:27:56.593Z,36.56
2022-08-17T10:30:26.723Z,36.54
2022-08-17T10:32:57.588Z,36.47
2022-08-17T10:35:34.036Z,36.31
2022-08-17T10:38:25.566Z,36.11
2022-08-17T10:41:03.950Z,36.24
2022-08-17T10:44:36.594Z,36.20
2022-08-17T10:46:56.255Z,36.16
2022-08-17T10:49:29.326Z,36.21
2022-08-17T10:52:02.656Z,36.10
2022-08-17T10:54:45.421Z,35.94
2022-08-17T10:57:27.169Z,35.63
2022-08-17T10:59:56.309Z,35.43
2022-08-17T11:02:28.332Z,35.35
2022-08-17T11:05:03.615Z,35.37
2022-08-17T11:07:49.388Z,35.66
2022-08-17T11:10:31.138Z,36.16
2022-08-17T11:13:07.000Z,36.49
2022-08-17T11:16:08.144Z,36.57
2022-08-17T11:18:53.494Z,36.43
2022-08-17T11:21:31.441Z,36.53
2022-08-17T11:24:20.964Z,36.63
2022-08-17T11:27:12.118Z,36.41
2022-08-17T11:30:02.730Z,36.22
2022-08-17T11:32:48.669Z,36.23
2022-08-17T11:35:22.704Z,36.35
2022-08-17T11:38:16.272Z,36.33
2022-08-17T11:41:11.145Z,35.94
2022-08-17T11:44:10.515Z,35.78
2022-08-17T11:47:13.431Z,35.67
2022-08-17T11:50:00.414Z,35.78
2022-08-17T11:52:46.076Z,36.09
2022-08-17T11:55:44.926Z,35.70
2022-08-17T11:58:29.619Z,35.39
2022-08-17T12:01:01.066Z,35.04
2022-08-17T12:03:31.681Z,35.05
2022-08-17T12:06:05.832Z,35.14
2022-08-17T12:08:34.194Z,35.15
2022-08-17T12:11:08.673Z,35.35
2022-08-17T12:13:46.575Z,35.73
2022-08-17T12:16:16.664Z,36.13
2022-08-17T12:18:50.490Z,36.59
2022-08-17T12:21:28.640Z,36.84
2022-08-17T12:24:37.248Z,36.97
2022-08-17T12:27:06.586Z,37.04
2022-08-17T12:29:38.801Z,37.27
2022-08-17T12:32:07.057Z,37.31
2022-08-17T12:34:41.147Z,37.29
2022-08-17T12:37:15.826Z,37.23
2022-08-17T12:40:01.676Z,36.86
2022-08-17T12:42:36.300Z,36.80
2022-08-17T12:45:07.487Z,36.66
2022-08-17T12:47:37.365Z,36.57
2022-08-17T12:50:28.833Z,36.40
2022-08-17T12:52:59.737Z,36.08
2022-08-17T12:55:32.474Z,35.97
2022-08-17T12:58:02.013Z,35.89
2022-08-17T13:00:33.187Z,35.72
2022-08-17T13:03:07.667Z,35.57
2022-08-17T13:05:54.448Z,35.43
2022-08-17T13:08:26.955Z,35.42
2022-08-17T13:11:02.484Z,35.27
2022-08-17T13:13:33.241Z,35.20
2022-08-17T13:16:03.486Z,35.14
2022-08-17T13:18:47.272Z,35.16
2022-08-17T13:21:30.308Z,35.07
2022-08-17T13:24:02.843Z,35.08
2022-08-17T13:26:38.322Z,35.02
2022-08-17T13:29:23.917Z,35.03
2022-08-17T13:32:14.249Z,35.07
2022-08-17T13:35:12.921Z,35.05
2022-08-17T13:37:38.176Z,35.32
2022-08-17T13:40:10.292Z,35.60
2022-08-17T13:42:50.332Z,35.74
2022-08-17T13:45:35.908Z,35.81
2022-08-17T13:48:27.145Z,35.96
2022-08-17T13:50:56.360Z,36.05
2022-08-17T13:53:31.345Z,36.11
2022-08-17T13:56:33.320Z,36.09
2022-08-17T13:59:00.231Z,36.14
2022-08-17T14:01:53.655Z,36.15
2022-08-17T14:04:27.755Z,36.30
2022-08-17T14:07:01.351Z,36.39
2022-08-17T14:09:37.546Z,36.51
2022-08-17T14:12:10.677Z,36.54
2022-08-17T14:14:37.762Z,36.58
2022-08-17T14:17:04.405Z,36.70
2022-08-17T14:19:30.902Z,36.47
2022-08-17T14:22:00.446Z,36.26
2022-08-17T14:24:30.944Z,36.26
2022-08-17T14:26:59.464Z,36.36
2022-08-17T14:29:28.847Z,36.29
2022-08-17T14:31:57.012Z,35.72
2022-08-17T14:34:24.379Z,35.82
2022-08-17T14:36:51.746Z,35.85
2022-08-17T14:39:20.220Z,35.84
2022-08-17T14:41:47.188Z,35.90
2022-08-17T14:44:13.802Z,35.64
2022-08-17T14:46:42.110Z,35.40
2022-08-17T14:49:13.270Z,35.26
2022-08-17T14:51:43.627Z,35.20
2022-08-17T14:54:33.370Z,35.17
2022-08-17T14:57:17.722Z,34.93
2022-08-17T14:59:54.942Z,34.76
2022-08-17T15:02:30.433Z,34.79
2022-08-17T15:05:01.969Z,34.91
2022-08-17T15:07:30.842Z,34.91
2022-08-17T15:10:00.636Z,34.92
2022-08-17T15:12:32.337Z,34.90
2022-08-17T15:15:00.992Z,34.71
2022-08-17T15:17:43.991Z,34.68
2022-08-17T15:20:18.725Z,34.67
2022-08-17T15:22:46.866Z,34.73
2022-08-17T15:25:14.068Z,34.68
2022-08-17T15:27:40.825Z,34.64
2022-08-17T15:30:08.858Z,34.48
2022-08-17T15:32:38.311Z,34.35
2022-08-17T15:35:06.441Z,34.26
2022-08-17T15:37:33.399Z,34.21
2022-08-17T15:40:01.140Z,34.17
2022-08-17T15:42:29.212Z,34.14
2022-08-17T15:44:55.734Z,34.08
2022-08-17T15:47:23.285Z,33.99
2022-08-17T15:49:50.726Z,33.92
2022-08-17T15:52:24.611Z,33.90
2022-08-17T15:54:58.774Z,33.85
2022-08-17T15:57:27.220Z,33.79
2022-08-17T15:59:58.772Z,33.71
2022-08-17T16:03:14.118Z,33.57
2022-08-17T16:05:24.218Z,33.54
2022-08-17T16:07:52.232Z,33.45
2022-08-17T16:10:19.580Z,33.49
2022-08-17T16:12:49.574Z,33.47
2022-08-17T16:15:17.771Z,33.38
2022-08-17T16:17:44.348Z,33.32
2022-08-17T16:20:20.161Z,33.27
2022-08-17T16:22:48.640Z,33.24
2022-08-17T16:25:19.440Z,33.18
2022-08-17T16:27:48.307Z,33.22
2022-08-17T16:30:17.570Z,33.13
2022-08-17T16:32:46.338Z,33.11
2022-08-17T16:35:18.159Z,32.99
2022-08-17T16:37:45.430Z,32.89
2022-08-17T16:40:14.751Z,32.85
2022-08-17T16:42:42.831Z,32.64
2022-08-17T16:45:16.801Z,32.50
2022-08-17T16:47:44.183Z,32.38
2022-08-17T16:50:13.436Z,32.26
2022-08-17T16:52:40.731Z,32.13
2022-08-17T16:55:09.579Z,32.11
2022-08-17T16:57:47.618Z,31.80
2022-08-17T17:00:20.317Z,31.53
2022-08-17T17:02:48.223Z,31.45
2022-08-17T17:05:40.940Z,31.23
2022-08-17T17:08:12.918Z,30.91
2022-08-17T17:10:47.461Z,30.69
2022-08-17T17:13:32.319Z,30.51
2022-08-17T17:16:05.031Z,30.33
2022-08-17T17:18:49.547Z,30.14
2022-08-17T17:21:24.405Z,30.01
2022-08-17T17:24:02.517Z,29.93
2022-08-17T17:26:50.105Z,29.93
2022-08-17T17:29:48.354Z,29.87
2022-08-17T17:32:40.590Z,29.76
2022-08-17T17:35:15.498Z,29.74
2022-08-17T17:37:45.183Z,29.65
2022-08-17T17:40:23.401Z,29.57
2022-08-17T17:42:55.361Z,29.45
2022-08-17T17:45:42.514Z,29.41
2022-08-17T17:48:09.075Z,29.43
2022-08-17T17:50:42.337Z,29.36
2022-08-17T17:53:18.994Z,29.26
2022-08-17T17:56:43.687Z,29.27
2022-08-17T17:59:29.210Z,29.13
2022-08-17T18:02:37.249Z,29.18
2022-08-17T18:05:16.853Z,29.12
2022-08-17T18:08:34.193Z,29.07
2022-08-17T18:11:26.693Z,29.14
2022-08-17T18:14:05.946Z,29.16
2022-08-17T18:16:34.935Z,29.15
2022-08-17T18:19:01.487Z,29.12
2022-08-17T18:21:43.831Z,28.99
2022-08-17T18:24:11.016Z,28.94
2022-08-17T18:26:42.087Z,28.86
2022-08-17T18:29:23.107Z,28.82
2022-08-17T18:32:19.938Z,28.70
2022-08-17T18:34:49.338Z,28.75
2022-08-17T18:37:40.815Z,28.69
2022-08-17T18:40:16.478Z,28.67
2022-08-17T18:42:46.375Z,28.69
2022-08-17T18:45:13.671Z,28.67
2022-08-17T18:47:54.673Z,28.62
2022-08-17T18:50:28.679Z,28.65
2022-08-17T18:53:26.487Z,28.58
2022-08-17T18:56:22.967Z,28.52
2022-08-17T18:59:16.791Z,28.40
2022-08-17T19:02:16.059Z,28.39
2022-08-17T19:05:04.476Z,28.39
2022-08-17T19:07:46.618Z,28.38
2022-08-17T19:10:30.554Z,28.34
2022-08-17T19:13:11.339Z,28.30
2022-08-17T19:16:14.764Z,28.17
2022-08-17T19:18:52.097Z,28.09
2022-08-17T19:21:23.456Z,28.09
2022-08-17T19:24:19.454Z,28.04
2022-08-17T19:26:56.337Z,27.97
2022-08-17T19:29:40.203Z,27.95
2022-08-17T19:32:08.688Z,27.89
2022-08-17T19:34:38.025Z,27.89
2022-08-17T19:37:29.240Z,27.87
2022-08-17T19:40:24.523Z,27.89
2022-08-17T19:43:02.791Z,27.90
2022-08-17T19:45:49.514Z,27.93
2022-08-17T19:48:40.721Z,27.92
2022-08-17T19:51:13.366Z,27.90
2022-08-17T19:54:04.848Z,27.89
2022-08-17T19:56:32.134Z,27.86
2022-08-17T19:59:18.854Z,27.85
2022-08-17T20:02:15.277Z,27.85
2022-08-17T20:04:45.058Z,27.79
2022-08-17T20:07:30.138Z,27.75
2022-08-17T20:10:04.430Z,27.76
2022-08-17T20:12:39.648Z,27.77
2022-08-17T20:15:13.412Z,27.77
2022-08-17T20:17:43.209Z,27.77
2022-08-17T20:20:57.053Z,27.73
2022-08-17T20:23:42.472Z,27.69
2022-08-17T20:26:23.608Z,27.66
2022-08-17T20:29:08.661Z,27.58
2022-08-17T20:31:47.558Z,27.57
2022-08-17T20:34:33.764Z,27.53
2022-08-17T20:37:08.565Z,27.53
2022-08-17T20:39:44.918Z,27.51
2022-08-17T20:42:20.641Z,27.53
2022-08-17T20:44:53.447Z,27.48
2022-08-17T20:47:32.181Z,27.46
2022-08-17T20:50:29.576Z,27.39
2022-08-17T20:53:02.645Z,27.38
2022-08-17T20:55:51.177Z,27.42
2022-08-17T20:58:29.917Z,27.41
2022-08-17T21:00:57.763Z,27.39
2022-08-17T21:03:24.428Z,27.32
2022-08-17T21:06:11.091Z,27.21
2022-08-17T21:08:53.303Z,26.98
2022-08-17T21:11:57.221Z,26.75
2022-08-17T21:14:32.753Z,26.38
2022-08-17T21:17:17.714Z,26.06
2022-08-17T21:20:13.286Z,25.64
2022-08-17T21:22:46.897Z,25.27
2022-08-17T21:25:28.349Z,24.93
2022-08-17T21:28:30.029Z,24.66
2022-08-17T21:31:08.314Z,24.27
2022-08-17T21:33:38.560Z,24.02
2022-08-17T21:36:17.050Z,23.81
2022-08-17T21:38:55.682Z,23.56
2022-08-17T21:41:34.213Z,23.35
2022-08-17T21:44:35.341Z,23.29
2022-08-17T21:47:24.587Z,23.17
2022-08-17T21:49:53.009Z,23.10
2022-08-17T21:52:23.279Z,22.98
2022-08-17T21:54:57.278Z,22.92
2022-08-17T21:57:30.075Z,22.91
2022-08-17T21:59:59.743Z,22.89
2022-08-17T22:02:35.233Z,22.83
2022-08-17T22:05:06.658Z,22.78
2022-08-17T22:07:49.790Z,22.83
2022-08-17T22:10:32.625Z,22.84
2022-08-17T22:13:17.343Z,22.63
2022-08-17T22:15:50.647Z,22.30
2022-08-17T22:18:26.935Z,22.10
2022-08-17T22:20:57.232Z,22.00
2022-08-17T22:23:48.206Z,21.97
2022-08-17T22:26:18.746Z,21.90
2022-08-17T22:28:48.861Z,21.79
2022-08-17T22:31:21.715Z,21.71
2022-08-17T22:34:07.594Z,21.63
2022-08-17T22:36:39.012Z,21.62
2022-08-17T22:39:08.531Z,21.62
2022-08-17T22:41:41.143Z,21.54
2022-08-17T22:44:23.069Z,21.49
2022-08-17T22:46:59.419Z,21.37
2022-08-17T22:49:29.238Z,21.43
2022-08-17T22:52:23.350Z,21.46
2022-08-17T22:55:35.457Z,21.43
2022-08-17T22:58:27.795Z,21.45
2022-08-17T23:00:54.652Z,21.49
2022-08-17T23:03:26.216Z,21.47
2022-08-17T23:06:11.072Z,21.43
2022-08-17T23:08:54.998Z,21.40
2022-08-17T23:11:42.960Z,21.37
2022-08-17T23:14:15.755Z,21.39
2022-08-17T23:16:43.018Z,21.36
2022-08-17T23:19:15.309Z,21.35
2022-08-17T23:21:45.107Z,21.14
2022-08-17T23:24:22.697Z,20.82
2022-08-17T23:26:49.631Z,20.72
2022-08-17T23:29:16.228Z,20.77
2022-08-17T23:31:42.866Z,20.86
2022-08-17T23:34:12.749Z,20.99
2022-08-17T23:36:39.303Z,21.09
2022-08-17T23:39:07.140Z,21.18
2022-08-17T23:41:38.382Z,21.24
2022-08-17T23:44:06.385Z,21.29
2022-08-17T23:46:34.368Z,21.26
2022-08-17T23:49:01.073Z,21.24
2022-08-17T23:51:30.780Z,21.24
2022-08-17T23:54:07.205Z,21.27
2022-08-17T23:56:41.480Z,21.27
2022-08-17T23:59:07.899Z,21.25
